Terminal Aerodrome Forecast
Issued by NWS Melbourne, FL

Home | Current Version | Previous Version | Text Only | Print | Product List | Glossary On
Versions: 1 2 3 4 5 6 7 8 9 10 11 12 13 14 15
000
FTUS42 KMLB 261141
TAFMLB
TAF
KMLB 261141Z 2612/2712 11012KT P6SM VCSH SCT025 BKN250
      TEMPO 2612/2614 BKN025
     FM261600 12015G22KT P6SM SCT030 BKN250
     FM270000 12011KT P6SM SCT025=

USA.gov is the U.S. government's official web portal to all federal, state and local government web resources and services.